createdAt,value
2022-08-12T00:00:16.773Z,55.5
2022-08-12T00:03:28.916Z,55.3
2022-08-12T00:06:41.076Z,55.5
2022-08-12T00:09:53.232Z,55.7
2022-08-12T00:13:05.391Z,55.6
2022-08-12T00:16:17.537Z,55.8
2022-08-12T00:19:29.686Z,55.8
2022-08-12T00:22:40.844Z,56.3
2022-08-12T00:25:53.011Z,56.5
2022-08-12T00:29:05.160Z,56.6
2022-08-12T00:32:17.315Z,56.7
2022-08-12T00:35:29.452Z,56.7
2022-08-12T00:38:41.614Z,56.9
2022-08-12T00:41:53.770Z,57.1
2022-08-12T00:45:04.940Z,57.5
2022-08-12T00:48:16.109Z,57.8
2022-08-12T00:51:27.276Z,58.1
2022-08-12T00:54:38.458Z,58.1
2022-08-12T00:57:49.621Z,58.3
2022-08-12T01:01:00.795Z,58.3
2022-08-12T01:04:12.948Z,58.7
2022-08-12T01:07:25.094Z,58.5
2022-08-12T01:10:37.254Z,58.8
2022-08-12T01:13:49.398Z,59
2022-08-12T01:17:01.557Z,59.2
2022-08-12T01:20:13.712Z,59.3
2022-08-12T01:23:25.855Z,59.4
2022-08-12T01:26:37.999Z,59.6
2022-08-12T01:29:50.159Z,59.7
2022-08-12T01:33:02.308Z,59.8
2022-08-12T01:36:14.458Z,60.1
2022-08-12T01:39:26.614Z,60.5
2022-08-12T01:42:37.781Z,60.6
2022-08-12T01:45:49.936Z,60.6
2022-08-12T01:49:02.090Z,60.9
2022-08-12T01:52:14.231Z,60.9
2022-08-12T01:55:26.383Z,61
2022-08-12T01:58:38.540Z,61.1
2022-08-12T02:01:50.697Z,61.1
2022-08-12T02:05:01.869Z,61.2
2022-08-12T02:08:13.022Z,61.4
2022-08-12T02:11:24.203Z,61.5
2022-08-12T02:14:35.388Z,61.8
2022-08-12T02:17:47.535Z,62.1
2022-08-12T02:20:58.717Z,62.6
2022-08-12T02:24:09.880Z,62.7
2022-08-12T02:27:22.038Z,63.2
2022-08-12T02:30:34.194Z,63.6
2022-08-12T02:33:46.343Z,64
2022-08-12T02:36:58.493Z,63.8
2022-08-12T02:40:10.643Z,63.8
2022-08-12T02:43:22.798Z,63.2
2022-08-12T02:46:34.946Z,63.5
2022-08-12T02:49:47.093Z,63.4
2022-08-12T02:52:59.254Z,63.4
2022-08-12T02:56:11.403Z,63.5
2022-08-12T02:59:23.567Z,63.1
2022-08-12T03:02:35.715Z,63.3
2022-08-12T03:05:46.884Z,63.7
2022-08-12T03:08:59.037Z,63.6
2022-08-12T03:12:11.178Z,63.6
2022-08-12T03:15:23.341Z,63.5
2022-08-12T03:18:35.494Z,63.7
2022-08-12T03:21:47.642Z,63.5
2022-08-12T03:24:59.786Z,63.8
2022-08-12T03:28:10.975Z,64
2022-08-12T03:31:22.135Z,64
2022-08-12T03:34:34.284Z,64.3
2022-08-12T03:37:46.443Z,64.3
2022-08-12T03:40:58.596Z,64.6
2022-08-12T03:44:10.746Z,64.7
2022-08-12T03:47:22.884Z,64.9
2022-08-12T03:50:35.044Z,64.9
2022-08-12T03:53:47.192Z,65
2022-08-12T03:56:59.355Z,64.9
2022-08-12T04:00:11.493Z,64.9
2022-08-12T04:03:23.650Z,64.8
2022-08-12T04:06:35.798Z,65.5
2022-08-12T04:09:47.949Z,66.1
2022-08-12T04:12:59.127Z,66.5
2022-08-12T04:16:11.281Z,67.1
2022-08-12T04:19:23.426Z,67.6
2022-08-12T04:22:35.577Z,68.2
2022-08-12T04:25:47.729Z,68.4
2022-08-12T04:28:59.880Z,68.3
2022-08-12T04:32:12.035Z,68.7
2022-08-12T04:35:23.209Z,68.4
2022-08-12T04:38:34.378Z,68.3
2022-08-12T04:41:46.519Z,68.5
2022-08-12T04:44:58.672Z,68.7
2022-08-12T04:48:10.837Z,68.7
2022-08-12T04:51:22.979Z,68.8
2022-08-12T04:54:35.136Z,68.8
2022-08-12T04:57:47.294Z,68.8
2022-08-12T05:00:59.437Z,68.8
2022-08-12T05:04:11.591Z,69.1
2022-08-12T05:07:23.735Z,69.7
2022-08-12T05:10:35.887Z,69.7
2022-08-12T05:13:48.040Z,69
2022-08-12T05:17:00.183Z,69.5
2022-08-12T05:20:11.372Z,69.5
2022-08-12T05:23:23.522Z,69.5
2022-08-12T05:26:35.657Z,69.4
2022-08-12T05:29:47.812Z,69.2
2022-08-12T05:32:59.974Z,69
2022-08-12T05:36:12.118Z,69.9
2022-08-12T05:39:24.275Z,69.8
2022-08-12T05:42:35.459Z,68.8
2022-08-12T05:45:46.611Z,68.3
2022-08-12T05:48:57.788Z,67.9
2022-08-12T05:52:08.965Z,67.3
2022-08-12T05:55:20.147Z,65.7
2022-08-12T05:58:31.302Z,65.9
2022-08-12T06:01:43.462Z,65.6
2022-08-12T06:04:55.618Z,66
2022-08-12T06:08:07.767Z,65.7
2022-08-12T06:11:19.918Z,65.3
2022-08-12T06:14:32.075Z,65.2
2022-08-12T06:17:44.231Z,65.5
2022-08-12T06:20:56.363Z,64.4
2022-08-12T06:24:08.529Z,63.5
2022-08-12T06:27:20.683Z,63.6
2022-08-12T06:30:32.832Z,64
2022-08-12T06:33:44.977Z,62.9
2022-08-12T06:36:57.138Z,62.8
2022-08-12T06:40:08.299Z,62.5
2022-08-12T06:43:20.446Z,62.5
2022-08-12T06:46:32.609Z,62
2022-08-12T06:49:44.754Z,60.4
2022-08-12T06:52:56.906Z,60.2
2022-08-12T06:56:09.055Z,59
2022-08-12T06:59:21.214Z,59.7
2022-08-12T07:02:32.386Z,58.9
2022-08-12T07:05:43.549Z,59.1
2022-08-12T07:08:54.737Z,57.7
2022-08-12T07:12:05.909Z,57.4
2022-08-12T07:15:18.059Z,56.5
2022-08-12T07:18:30.206Z,56.7
2022-08-12T07:21:42.349Z,55.9
2022-08-12T07:24:54.502Z,56
2022-08-12T07:28:06.648Z,56.4
2022-08-12T07:31:18.805Z,56.7
2022-08-12T07:34:30.967Z,56.7
2022-08-12T07:37:43.112Z,56.9
2022-08-12T07:40:55.265Z,56.3
2022-08-12T07:44:07.415Z,55.5
2022-08-12T07:47:19.567Z,55.1
2022-08-12T07:50:31.696Z,54.4
2022-08-12T07:53:42.862Z,54.6
2022-08-12T07:56:55.025Z,53.1
2022-08-12T08:00:07.180Z,52.8
2022-08-12T08:03:19.330Z,53.4
2022-08-12T08:06:31.469Z,53.3
2022-08-12T08:09:43.628Z,52.8
2022-08-12T08:12:55.765Z,52.1
2022-08-12T08:16:06.946Z,51.5
2022-08-12T08:19:18.122Z,51.3
2022-08-12T08:22:29.292Z,50.1
2022-08-12T08:25:40.460Z,50.8
2022-08-12T08:28:52.604Z,51.1
2022-08-12T08:32:04.770Z,49.6
2022-08-12T08:35:16.916Z,49.3
2022-08-12T08:38:29.058Z,48.4
2022-08-12T08:41:41.214Z,48.5
2022-08-12T08:44:53.356Z,47.7
2022-08-12T08:48:05.502Z,48.5
2022-08-12T08:51:17.664Z,48.1
2022-08-12T08:54:29.808Z,47.5
2022-08-12T08:57:41.957Z,48.1
2022-08-12T09:00:54.112Z,47
2022-08-12T09:04:06.272Z,46.9
2022-08-12T09:07:17.424Z,47.3
2022-08-12T09:10:29.586Z,47.4
2022-08-12T09:13:41.729Z,46.7
2022-08-12T09:16:53.869Z,46.6
2022-08-12T09:20:06.036Z,45.7
2022-08-12T09:23:18.178Z,45.8
2022-08-12T09:26:30.331Z,46.5
2022-08-12T09:29:41.509Z,45.3
2022-08-12T09:32:52.669Z,45.8
2022-08-12T09:36:04.813Z,46.8
2022-08-12T09:39:16.963Z,46
2022-08-12T09:42:29.112Z,46.1
2022-08-12T09:45:41.265Z,45.6
2022-08-12T09:48:53.425Z,45.9
2022-08-12T09:52:05.577Z,45.2
2022-08-12T09:55:17.715Z,45.2
2022-08-12T09:58:29.868Z,45.3
2022-08-12T10:01:42.015Z,45.8
2022-08-12T10:04:54.175Z,45.1
2022-08-12T10:08:06.314Z,44.4
2022-08-12T10:11:18.477Z,44.8
2022-08-12T10:14:29.640Z,45.7
2022-08-12T10:17:41.793Z,44.3
2022-08-12T10:20:53.940Z,44.1
2022-08-12T10:24:06.086Z,43.6
2022-08-12T10:27:18.237Z,44.2
2022-08-12T10:30:30.396Z,44.2
2022-08-12T10:33:42.547Z,43.4
2022-08-12T10:36:53.711Z,43.2
2022-08-12T10:40:04.878Z,43.5
2022-08-12T10:43:16.052Z,44.4
2022-08-12T10:46:27.219Z,43.6
2022-08-12T10:49:39.386Z,43.3
2022-08-12T10:52:51.539Z,43
2022-08-12T10:56:03.704Z,43
2022-08-12T10:59:15.852Z,42.4
2022-08-12T11:02:28.015Z,43.3
2022-08-12T11:05:40.165Z,43.4
2022-08-12T11:08:52.303Z,43.4
2022-08-12T11:12:04.449Z,43.2
2022-08-12T11:15:16.607Z,42.2
2022-08-12T11:18:28.760Z,42.1
2022-08-12T11:21:40.900Z,43.1
2022-08-12T11:24:53.000Z,41.8
2022-08-12T11:28:04.217Z,41.8
2022-08-12T11:31:16.378Z,42.1
2022-08-12T11:34:28.532Z,42.4
2022-08-12T11:37:40.680Z,42.5
2022-08-12T11:40:52.823Z,42.5
2022-08-12T11:44:04.988Z,41.9
2022-08-12T11:47:17.131Z,42.1
2022-08-12T11:50:28.301Z,41.8
2022-08-12T11:53:39.467Z,42.2
2022-08-12T11:56:50.651Z,41.8
2022-08-12T12:00:01.821Z,41
2022-08-12T12:03:13.976Z,41.7
2022-08-12T12:06:26.124Z,42.3
2022-08-12T12:09:38.260Z,42
2022-08-12T12:12:50.419Z,42
2022-08-12T12:16:02.569Z,41.9
2022-08-12T12:19:14.721Z,41.4
2022-08-12T12:22:26.875Z,41.9
2022-08-12T12:25:39.008Z,42.7
2022-08-12T12:28:51.176Z,41.5
2022-08-12T12:32:03.321Z,41.5
2022-08-12T12:35:15.474Z,42.1
2022-08-12T12:38:27.620Z,41.8
2022-08-12T12:41:39.770Z,42.2
2022-08-12T12:44:50.928Z,41.3
2022-08-12T12:48:03.089Z,41.6
2022-08-12T12:51:15.247Z,41.7
2022-08-12T12:54:27.386Z,41.6
2022-08-12T12:57:38.555Z,41.6
2022-08-12T13:00:50.722Z,41.5
2022-08-12T13:04:01.900Z,41.1
2022-08-12T13:07:13.068Z,40.9
2022-08-12T13:10:24.227Z,41
2022-08-12T13:13:35.409Z,41
2022-08-12T13:16:47.552Z,40.3
2022-08-12T13:19:59.710Z,40.4
2022-08-12T13:23:11.846Z,40.9
2022-08-12T13:26:24.004Z,40.4
2022-08-12T13:29:36.164Z,40.6
2022-08-12T13:32:48.318Z,39.8
2022-08-12T13:36:00.463Z,39.6
2022-08-12T13:39:12.602Z,39.3
2022-08-12T13:42:24.751Z,39.8
2022-08-12T13:45:36.906Z,39.2
2022-08-12T13:48:49.067Z,38.3
2022-08-12T13:52:01.212Z,38.9
2022-08-12T13:55:12.380Z,38
2022-08-12T13:58:24.519Z,37.7
2022-08-12T14:01:36.671Z,37.5
2022-08-12T14:04:48.829Z,36.4
2022-08-12T14:08:00.980Z,37.2
2022-08-12T14:11:13.126Z,37.2
2022-08-12T14:14:25.277Z,36.3
2022-08-12T14:17:36.452Z,36.4
2022-08-12T14:20:47.622Z,36.6
2022-08-12T14:23:58.804Z,37.3
2022-08-12T14:27:09.966Z,37
2022-08-12T14:33:34.278Z,37.5
2022-08-12T14:36:46.412Z,38.1
2022-08-12T14:39:58.579Z,38.3
2022-08-12T14:43:10.717Z,38.8
2022-08-12T14:46:22.872Z,38.9
2022-08-12T14:49:35.030Z,38.8
2022-08-12T14:52:47.000Z,38.5
2022-08-12T14:55:59.335Z,38.3
2022-08-12T14:59:11.470Z,38.4
2022-08-12T15:02:23.632Z,38.7
2022-08-12T15:05:35.771Z,38.6
2022-08-12T15:08:46.950Z,37.1
2022-08-12T15:11:59.101Z,37.7
2022-08-12T15:15:11.252Z,37.7
2022-08-12T15:18:23.386Z,37.8
2022-08-12T15:21:35.537Z,37.3
2022-08-12T15:24:47.695Z,37.4
2022-08-12T15:27:59.849Z,37
2022-08-12T15:31:11.987Z,37.4
2022-08-12T15:34:23.179Z,37.5
2022-08-12T15:37:34.332Z,37.6
2022-08-12T15:40:46.500Z,38
2022-08-12T15:43:58.634Z,37.9
2022-08-12T15:47:10.798Z,38.3
2022-08-12T15:50:22.945Z,38.4
2022-08-12T15:53:35.091Z,38.4
2022-08-12T15:56:47.244Z,38.5
2022-08-12T15:59:59.404Z,38.5
2022-08-12T16:03:11.545Z,39
2022-08-12T16:06:23.698Z,38.9
2022-08-12T16:09:35.847Z,38.9
2022-08-12T16:12:48.002Z,38.7
2022-08-12T16:16:00.147Z,38
2022-08-12T16:19:11.318Z,38
2022-08-12T16:22:23.463Z,38.1
2022-08-12T16:25:35.624Z,39.4
2022-08-12T16:28:47.774Z,38.3
2022-08-12T16:31:59.924Z,38.9
2022-08-12T16:35:12.078Z,38.8
2022-08-12T16:38:24.229Z,38.5
2022-08-12T16:41:35.407Z,38.7
2022-08-12T16:44:46.569Z,39.8
2022-08-12T16:47:57.743Z,39.5
2022-08-12T16:51:08.910Z,40.6
2022-08-12T16:54:20.097Z,40.3
2022-08-12T16:57:31.252Z,40.1
2022-08-12T17:00:43.408Z,40.4
2022-08-12T17:03:55.567Z,40.5
2022-08-12T17:07:07.701Z,40.2
2022-08-12T17:10:19.869Z,40.1
2022-08-12T17:13:32.016Z,40.8
2022-08-12T17:16:44.159Z,40
2022-08-12T17:19:56.313Z,40.6
2022-08-12T17:23:08.466Z,41
2022-08-12T17:26:20.629Z,41.2
2022-08-12T17:29:32.767Z,41.5
2022-08-12T17:32:44.916Z,42.3
2022-08-12T17:35:57.076Z,43
2022-08-12T17:39:08.242Z,42.4
2022-08-12T17:42:20.399Z,41.9
2022-08-12T17:45:32.544Z,43.1
2022-08-12T17:48:44.703Z,42.9
2022-08-12T17:51:56.840Z,42.7
2022-08-12T17:55:08.991Z,42.6
2022-08-12T17:58:21.152Z,43.4
2022-08-12T18:01:32.331Z,44
2022-08-12T18:04:43.497Z,44.6
2022-08-12T18:07:55.646Z,45.1
2022-08-12T18:11:07.796Z,46.1
2022-08-12T18:14:19.941Z,46.2
2022-08-12T18:17:32.000Z,46.4
2022-08-12T18:20:44.246Z,46.2
2022-08-12T18:23:56.398Z,46.4
2022-08-12T18:27:08.544Z,47.1
2022-08-12T18:30:20.711Z,47.9
2022-08-12T18:33:32.854Z,47.5
2022-08-12T18:36:45.007Z,47.4
2022-08-12T18:39:57.169Z,47.3
2022-08-12T18:43:09.303Z,46.4
2022-08-12T18:46:20.486Z,45.9
2022-08-12T18:49:32.632Z,47.3
2022-08-12T18:52:44.774Z,47.5
2022-08-12T18:55:56.934Z,47.9
2022-08-12T18:59:09.085Z,48
2022-08-12T19:02:21.225Z,48.3
2022-08-12T19:05:33.398Z,48.2
2022-08-12T19:08:44.562Z,47.9
2022-08-12T19:11:55.726Z,48.9
2022-08-12T19:15:06.915Z,49.3
2022-08-12T19:18:18.088Z,49.1
2022-08-12T19:21:30.243Z,49.1
2022-08-12T19:24:42.397Z,49.4
2022-08-12T19:27:54.542Z,49.6
2022-08-12T19:31:06.696Z,50.2
2022-08-12T19:34:18.847Z,50.6
2022-08-12T19:37:30.999Z,50.5
2022-08-12T19:40:43.149Z,50.6
2022-08-12T19:43:55.296Z,50.6
2022-08-12T19:47:07.449Z,51.2
2022-08-12T19:50:19.611Z,51.5
2022-08-12T19:53:31.751Z,51.6
2022-08-12T19:56:43.913Z,51.7
2022-08-12T19:59:55.072Z,51.9
2022-08-12T20:03:07.229Z,51.8
2022-08-12T20:06:19.375Z,52.3
2022-08-12T20:09:31.535Z,52.5
2022-08-12T20:12:43.692Z,52.2
2022-08-12T20:15:55.842Z,52.7
2022-08-12T20:19:07.990Z,53
2022-08-12T20:22:19.169Z,53.2
2022-08-12T20:25:30.346Z,53.1
2022-08-12T20:28:42.479Z,53.5
2022-08-12T20:31:54.642Z,53.9
2022-08-12T20:35:06.787Z,53.9
2022-08-12T20:38:18.940Z,53.9
2022-08-12T20:41:31.089Z,54.1
2022-08-12T20:44:43.244Z,53.6
2022-08-12T20:47:55.404Z,53.7
2022-08-12T20:51:07.556Z,53.7
2022-08-12T20:54:19.705Z,53.3
2022-08-12T20:57:31.858Z,53.6
2022-08-12T21:00:44.007Z,54
2022-08-12T21:03:56.167Z,54
2022-08-12T21:07:07.327Z,54.3
2022-08-12T21:10:19.467Z,54.7
2022-08-12T21:13:31.636Z,55
2022-08-12T21:16:43.782Z,55.5
2022-08-12T21:19:55.921Z,55.9
2022-08-12T21:23:08.079Z,56.4
2022-08-12T21:26:20.235Z,56
2022-08-12T21:29:31.421Z,56.3
2022-08-12T21:32:42.578Z,56.9
2022-08-12T21:35:53.748Z,57
2022-08-12T21:39:04.929Z,57.7
2022-08-12T21:42:17.067Z,58
2022-08-12T21:45:29.225Z,58.5
2022-08-12T21:48:41.378Z,58.6
2022-08-12T21:51:53.539Z,58.8
2022-08-12T21:55:05.694Z,59.1
2022-08-12T21:58:17.827Z,59.4
2022-08-12T22:01:29.983Z,59.5
2022-08-12T22:04:42.146Z,59.4
2022-08-12T22:07:54.282Z,59.3
2022-08-12T22:11:06.447Z,59.2
2022-08-12T22:14:18.594Z,59.3
2022-08-12T22:17:30.742Z,59.5
2022-08-12T22:20:41.902Z,59.7
2022-08-12T22:23:54.068Z,59.7
2022-08-12T22:27:06.206Z,59.7
2022-08-12T22:30:18.376Z,59.9
2022-08-12T22:33:30.516Z,60
2022-08-12T22:36:42.673Z,59.8
2022-08-12T22:39:54.825Z,59.7
2022-08-12T22:43:06.001Z,59.6
2022-08-12T22:46:17.168Z,59.7
2022-08-12T22:49:28.357Z,60.5
2022-08-12T22:52:39.512Z,60.4
2022-08-12T22:55:50.703Z,60
2022-08-12T22:59:01.864Z,59.8
2022-08-12T23:02:13.046Z,59.7
2022-08-12T23:05:24.215Z,59.8
2022-08-12T23:08:36.354Z,59.9
2022-08-12T23:11:48.515Z,60.1
2022-08-12T23:15:00.668Z,60.3
2022-08-12T23:18:12.803Z,59.9
2022-08-12T23:21:24.957Z,60
2022-08-12T23:24:37.105Z,60.2
2022-08-12T23:27:49.266Z,60.6
2022-08-12T23:31:01.420Z,60.9
2022-08-12T23:34:13.569Z,60.6
2022-08-12T23:37:25.714Z,60.7
2022-08-12T23:40:36.890Z,60.7
2022-08-12T23:43:49.041Z,61
2022-08-12T23:47:01.193Z,61.2
2022-08-12T23:50:13.353Z,61.4
2022-08-12T23:53:25.507Z,61.5
2022-08-12T23:56:37.649Z,61.7
2022-08-12T23:59:49.811Z,61.6
